Time;durP1;ratioP1;P1;durP2;ratioP2;P2;SDS_P1;SDS_P2;PMS_P1;PMS_P2;Temp;Humidity;BMP_temperature;BMP_pressure;BME280_temperature;BME280_humidity;BME280_pressure;Samples;Min_cycle;Max_cycle;Signal;HPM_P1;HPM_P2
2024/04/04 00:05:38;;;;;;;6.95;3.10;;;10.40;99.90;;;;;;12606706;28;20114;-35
2024/04/04 00:11:39;;;;;;;7.47;3.40;;;10.50;99.90;;;;;;12593020;28;20048;-35
2024/04/04 00:17:39;;;;;;;6.53;3.08;;;10.50;99.90;;;;;;12607349;28;20044;-35
2024/04/04 00:23:41;;;;;;;7.55;3.17;;;10.50;99.90;;;;;;12599221;28;20075;-35
2024/04/04 00:29:42;;;;;;;4.03;2.83;;;10.50;99.90;;;;;;12605534;28;20055;-35
2024/04/04 00:35:42;;;;;;;6.47;3.00;;;10.40;99.90;;;;;;12606167;28;20047;-36
2024/04/04 00:41:43;;;;;;;6.70;3.17;;;10.40;99.90;;;;;;12582373;28;20055;-36
2024/04/04 00:47:46;;;;;;;6.72;3.17;;;10.30;99.90;;;;;;12598558;28;20841;-35
2024/04/04 00:53:48;;;;;;;8.05;3.10;;;10.20;99.90;;;;;;12602265;28;20105;-35
2024/04/04 00:59:50;;;;;;;7.18;2.90;;;10.10;99.90;;;;;;12611079;28;20476;-36
2024/04/04 01:05:51;;;;;;;6.38;2.55;;;10.00;99.90;;;;;;12607350;28;20063;-35
2024/04/04 01:11:52;;;;;;;3.72;2.45;;;9.90;99.90;;;;;;12590057;28;20427;-35
2024/04/04 01:17:52;;;;;;;6.10;3.20;;;9.90;99.90;;;;;;12606201;28;20064;-36
2024/04/04 01:23:53;;;;;;;7.30;2.67;;;9.80;99.90;;;;;;12595220;28;20082;-35
2024/04/04 01:29:54;;;;;;;5.50;2.50;;;9.90;99.90;;;;;;12608473;28;20123;-35
2024/04/04 01:35:55;;;;;;;6.35;2.70;;;9.80;99.90;;;;;;12606310;28;20045;-35
2024/04/04 01:41:56;;;;;;;10.50;2.78;;;9.70;99.90;;;;;;12608468;28;20404;-35
2024/04/04 01:47:57;;;;;;;5.05;2.38;;;9.70;99.90;;;;;;12602335;28;20121;-36
2024/04/04 01:53:59;;;;;;;3.95;2.17;;;9.70;99.90;;;;;;12596864;28;20086;-36
2024/04/04 02:00:00;;;;;;;5.65;2.47;;;9.60;99.90;;;;;;12602317;28;20098;-35
2024/04/04 02:06:01;;;;;;;6.70;2.50;;;9.60;99.90;;;;;;12599013;28;20105;-35
2024/04/04 02:12:01;;;;;;;5.78;2.53;;;9.60;99.90;;;;;;12612867;28;20200;-35
2024/04/04 02:18:02;;;;;;;4.40;2.30;;;9.60;99.90;;;;;;12620555;28;20050;-35
2024/04/04 02:24:04;;;;;;;4.13;2.20;;;9.50;99.90;;;;;;12603529;28;20398;-36
2024/04/04 02:30:05;;;;;;;6.95;2.50;;;9.50;99.90;;;;;;12611936;28;20044;-35
2024/04/04 02:36:06;;;;;;;5.45;2.10;;;9.40;99.90;;;;;;12611702;28;20483;-36
2024/04/04 02:42:08;;;;;;;5.47;2.13;;;9.40;99.90;;;;;;12596883;28;20091;-35
2024/04/04 02:48:09;;;;;;;9.77;2.28;;;9.30;99.90;;;;;;12609864;28;20048;-35
2024/04/04 02:54:10;;;;;;;8.65;2.25;;;9.20;99.90;;;;;;12598680;28;20056;-35
2024/04/04 03:00:11;;;;;;;6.00;2.30;;;9.00;99.90;;;;;;12603999;28;20048;-35
2024/04/04 03:06:17;;;;;;;3.50;2.00;;;9.00;99.90;;;;;;12611083;28;20052;-35
2024/04/04 03:12:18;;;;;;;4.95;2.03;;;8.90;99.90;;;;;;12612278;28;20086;-35
2024/04/04 03:18:19;;;;;;;6.43;2.25;;;8.90;99.90;;;;;;12604954;28;20523;-35
2024/04/04 03:24:20;;;;;;;4.03;1.90;;;8.80;99.90;;;;;;12601677;28;20071;-36
2024/04/04 03:30:21;;;;;;;7.40;2.35;;;8.70;99.90;;;;;;12604854;28;20980;-35
2024/04/04 03:36:22;;;;;;;8.60;2.22;;;8.60;99.90;;;;;;12606506;28;20055;-36
2024/04/04 03:42:23;;;;;;;5.68;1.77;;;8.60;99.90;;;;;;12589270;28;20044;-36
2024/04/04 03:48:24;;;;;;;5.82;1.75;;;8.50;99.90;;;;;;12603111;28;20146;-35
2024/04/04 03:54:24;;;;;;;7.20;1.95;;;8.60;99.90;;;;;;12592107;28;20047;-34
2024/04/04 04:00:25;;;;;;;6.10;1.92;;;8.70;99.90;;;;;;12575316;28;20040;-36
2024/04/04 04:06:26;;;;;;;8.18;1.98;;;8.80;99.90;;;;;;12634533;28;20071;-35
2024/04/04 04:12:27;;;;;;;7.72;2.03;;;8.80;99.90;;;;;;12583926;28;20060;-35
2024/04/04 04:18:28;;;;;;;8.88;2.33;;;8.90;99.90;;;;;;12602112;28;20048;-35
2024/04/04 04:24:29;;;;;;;6.30;2.15;;;8.80;99.90;;;;;;12606953;28;20072;-35
2024/04/04 04:30:30;;;;;;;10.80;2.17;;;8.90;99.90;;;;;;12593046;28;20055;-36
2024/04/04 04:36:33;;;;;;;5.65;1.80;;;9.00;99.90;;;;;;12593009;28;20097;-35
2024/04/04 04:42:34;;;;;;;6.45;2.00;;;9.00;99.90;;;;;;12620366;28;20052;-36
2024/04/04 04:48:34;;;;;;;6.35;1.70;;;8.90;99.90;;;;;;12595292;28;20059;-36
2024/04/04 04:54:35;;;;;;;9.35;2.20;;;8.90;99.90;;;;;;12603895;28;20056;-35
2024/04/04 05:00:36;;;;;;;4.80;1.90;;;8.90;99.90;;;;;;12605289;28;20048;-36
2024/04/04 05:06:38;;;;;;;5.75;1.95;;;8.90;99.90;;;;;;12602507;28;20048;-35
2024/04/04 05:12:39;;;;;;;9.93;1.95;;;9.00;99.90;;;;;;12570849;28;20056;-35
2024/04/04 05:18:40;;;;;;;5.32;1.85;;;9.00;99.90;;;;;;12588199;28;20056;-35
2024/04/04 05:24:41;;;;;;;7.13;1.90;;;9.10;99.90;;;;;;12591376;28;20063;-35
2024/04/04 05:30:41;;;;;;;5.85;2.00;;;9.20;99.90;;;;;;12599280;28;20053;-35
2024/04/04 05:36:42;;;;;;;2.88;2.05;;;9.30;99.90;;;;;;12607513;28;20083;-36
2024/04/04 05:42:43;;;;;;;9.95;2.40;;;9.30;99.90;;;;;;12603145;28;20078;-35
2024/04/04 05:48:44;;;;;;;5.82;1.88;;;9.30;99.90;;;;;;12599045;28;20052;-36
2024/04/04 05:54:47;;;;;;;4.47;2.20;;;9.30;99.90;;;;;;12605919;28;20475;-35
2024/04/04 06:00:48;;;;;;;5.55;2.38;;;9.40;99.90;;;;;;12608644;28;20055;-35
2024/04/04 06:06:49;;;;;;;7.20;2.22;;;9.50;99.90;;;;;;12599024;28;20524;-35
2024/04/04 06:12:50;;;;;;;4.30;1.90;;;9.60;99.90;;;;;;12594042;28;20063;-35
2024/04/04 06:18:51;;;;;;;4.97;3.20;;;9.60;99.90;;;;;;12610999;28;20047;-35
2024/04/04 06:24:51;;;;;;;5.00;2.70;;;9.50;99.90;;;;;;12591695;28;20210;-35
2024/04/04 06:30:52;;;;;;;4.35;3.10;;;9.30;99.90;;;;;;12628551;28;20504;-35
2024/04/04 06:36:53;;;;;;;6.00;2.92;;;9.30;99.90;;;;;;12616792;28;20705;-35
2024/04/04 06:42:54;;;;;;;6.05;3.50;;;9.40;99.90;;;;;;12612533;28;20145;-36
2024/04/04 06:48:55;;;;;;;6.70;4.03;;;9.40;99.90;;;;;;12616828;28;20040;-36
2024/04/04 06:54:56;;;;;;;7.15;3.00;;;9.50;99.90;;;;;;12622639;28;20049;-35
2024/04/04 07:01:00;;;;;;;5.53;3.38;;;9.50;99.90;;;;;;12615675;28;20138;-35
2024/04/04 07:07:01;;;;;;;5.00;3.40;;;9.60;99.90;;;;;;12623690;28;20469;-35
2024/04/04 07:13:02;;;;;;;4.88;4.15;;;9.70;99.90;;;;;;12603032;28;21275;-35
2024/04/04 07:19:03;;;;;;;6.30;5.60;;;9.70;99.90;;;;;;12616672;28;20093;-36
2024/04/04 07:25:04;;;;;;;7.88;4.22;;;9.80;99.90;;;;;;12604708;28;20427;-36
2024/04/04 07:31:05;;;;;;;7.00;4.20;;;9.80;99.90;;;;;;12605296;28;20098;-36
2024/04/04 07:37:06;;;;;;;9.07;5.60;;;9.90;99.90;;;;;;12609958;28;20108;-35
2024/04/04 07:43:08;;;;;;;8.40;6.10;;;9.90;99.90;;;;;;12608312;28;20056;-36
2024/04/04 07:49:09;;;;;;;7.53;6.78;;;10.00;99.90;;;;;;12624842;28;20047;-35
2024/04/04 07:55:10;;;;;;;7.63;5.85;;;10.00;99.90;;;;;;12623495;28;20487;-35
2024/04/04 08:01:14;;;;;;;9.73;6.20;;;10.00;99.90;;;;;;12601442;28;20097;-36
2024/04/04 08:07:15;;;;;;;7.38;6.63;;;10.00;99.90;;;;;;12600343;28;20055;-35
2024/04/04 08:13:16;;;;;;;7.07;5.65;;;10.00;99.90;;;;;;12610417;28;20055;-36
2024/04/04 08:19:16;;;;;;;11.00;9.90;;;10.10;99.90;;;;;;12603902;28;20044;-35
2024/04/04 08:25:19;;;;;;;11.93;10.88;;;10.20;99.90;;;;;;12602089;28;20135;-35
2024/04/04 08:31:20;;;;;;;23.10;21.55;;;10.30;99.90;;;;;;12596366;28;20067;-36
2024/04/04 08:37:21;;;;;;;8.13;6.80;;;10.40;99.90;;;;;;12589973;28;20044;-35
2024/04/04 08:43:23;;;;;;;10.95;9.93;;;10.50;99.90;;;;;;12579546;28;20044;-35
2024/04/04 08:49:26;;;;;;;7.82;7.07;;;10.70;99.90;;;;;;12616676;28;20052;-35
2024/04/04 08:55:27;;;;;;;9.90;9.20;;;10.80;99.90;;;;;;12610271;28;20432;-36
2024/04/04 09:01:28;;;;;;;10.63;9.73;;;11.00;99.90;;;;;;12599009;28;20059;-36
2024/04/04 09:07:29;;;;;;;10.75;9.93;;;11.10;99.90;;;;;;12604379;28;20063;-36
2024/04/04 09:13:30;;;;;;;13.52;12.52;;;11.30;99.90;;;;;;12613094;28;20064;-36
2024/04/04 09:19:31;;;;;;;14.50;13.57;;;11.30;99.90;;;;;;12591504;28;20090;-37
2024/04/04 09:25:33;;;;;;;7.43;6.72;;;11.30;99.90;;;;;;12604983;28;20105;-35
2024/04/04 09:31:36;;;;;;;8.40;7.78;;;11.30;99.90;;;;;;12615424;28;20055;-36
2024/04/04 09:37:37;;;;;;;8.57;7.90;;;11.30;99.90;;;;;;12609374;28;20060;-35
2024/04/04 09:43:38;;;;;;;10.27;9.60;;;11.30;99.90;;;;;;12606185;28;20055;-36
2024/04/04 09:49:40;;;;;;;12.55;11.75;;;11.40;99.90;;;;;;12608372;28;20051;-36
2024/04/04 09:55:43;;;;;;;16.60;15.48;;;11.50;99.90;;;;;;12611845;28;20124;-35
2024/04/04 10:01:44;;;;;;;9.68;8.98;;;11.50;99.90;;;;;;12606755;28;20048;-36
2024/04/04 10:07:49;;;;;;;8.77;8.07;;;11.40;99.90;;;;;;12582172;28;20508;-36
2024/04/04 10:13:52;;;;;;;8.85;8.15;;;11.30;99.90;;;;;;12610293;28;20081;-36
2024/04/04 10:19:53;;;;;;;7.32;6.82;;;11.20;99.90;;;;;;12612454;28;20044;-36
2024/04/04 10:26:07;;;;;;;6.35;5.93;;;11.20;99.90;;;;;;12620153;28;20060;-35
2024/04/04 10:32:09;;;;;;;8.02;7.28;;;11.40;99.90;;;;;;12623067;28;20489;-35
2024/04/04 10:38:11;;;;;;;9.00;8.50;;;11.70;99.90;;;;;;12603982;28;20097;-35
2024/04/04 10:44:20;;;;;;;11.77;11.07;;;11.90;99.90;;;;;;12613992;28;20055;-35
2024/04/04 10:50:20;;;;;;;16.42;15.60;;;12.10;99.90;;;;;;12610797;28;20052;-36
2024/04/04 10:56:23;;;;;;;8.60;8.07;;;11.90;99.90;;;;;;12627908;28;20041;-36
2024/04/04 11:02:24;;;;;;;10.13;9.55;;;11.80;99.90;;;;;;12623155;28;20067;-36
2024/04/04 11:08:27;;;;;;;6.13;5.72;;;12.00;99.90;;;;;;12615872;28;20075;-36
2024/04/04 11:14:28;;;;;;;8.80;8.27;;;12.10;99.90;;;;;;12610954;28;20048;-36
2024/04/04 11:20:31;;;;;;;8.40;7.90;;;12.50;99.90;;;;;;12608814;28;20327;-36
2024/04/04 11:26:32;;;;;;;14.18;13.35;;;12.60;99.90;;;;;;12621329;28;20067;-36
2024/04/04 11:32:36;;;;;;;17.90;16.98;;;12.80;99.90;;;;;;12597593;28;20512;-36
2024/04/04 11:38:38;;;;;;;10.75;10.05;;;12.90;99.90;;;;;;12609301;28;20522;-36
2024/04/04 11:44:39;;;;;;;13.77;12.88;;;12.90;99.90;;;;;;12613345;28;20048;-36
2024/04/04 11:50:40;;;;;;;11.90;11.00;;;12.90;99.90;;;;;;12622319;28;20611;-36
2024/04/04 11:56:41;;;;;;;9.93;9.27;;;12.90;99.90;;;;;;12613946;28;20048;-36
2024/04/04 12:02:42;;;;;;;12.85;12.15;;;13.10;99.90;;;;;;12608202;28;20048;-36
2024/04/04 12:08:43;;;;;;;9.15;8.50;;;13.30;99.90;;;;;;12610900;28;20052;-36
2024/04/04 12:14:44;;;;;;;15.20;14.30;;;13.30;99.90;;;;;;12609423;28;20052;-36
2024/04/04 12:20:45;;;;;;;8.90;8.10;;;13.40;99.90;;;;;;12614731;28;20558;-36
2024/04/04 12:26:48;;;;;;;6.93;6.32;;;13.50;99.90;;;;;;12594616;28;20059;-36
2024/04/04 12:32:49;;;;;;;6.65;5.88;;;13.70;99.90;;;;;;12607059;28;20057;-36
2024/04/04 12:38:50;;;;;;;6.88;6.38;;;13.80;99.90;;;;;;12605884;28;20067;-36
2024/04/04 12:44:51;;;;;;;8.10;7.55;;;13.70;99.90;;;;;;12588507;28;20044;-36
2024/04/04 12:50:52;;;;;;;6.20;5.70;;;13.60;99.90;;;;;;12602499;28;20056;-36
2024/04/04 12:56:53;;;;;;;6.78;6.18;;;13.70;99.90;;;;;;12615341;28;20046;-36
2024/04/04 13:02:54;;;;;;;8.00;7.30;;;14.30;99.90;;;;;;12601976;28;20102;-36
2024/04/04 13:08:55;;;;;;;8.25;7.55;;;14.90;99.90;;;;;;12606859;28;20078;-36
2024/04/04 13:14:56;;;;;;;11.18;10.38;;;14.90;99.90;;;;;;12616242;28;20044;-36
2024/04/04 13:20:58;;;;;;;8.88;8.38;;;14.30;99.90;;;;;;12600275;28;20155;-35
2024/04/04 13:26:58;;;;;;;7.78;6.97;;;13.90;99.90;;;;;;12610495;28;20428;-36
2024/04/04 13:32:59;;;;;;;9.05;8.25;;;14.20;99.90;;;;;;12612469;28;20056;-36
2024/04/04 13:39:00;;;;;;;9.70;9.00;;;14.50;99.90;;;;;;12599546;28;20155;-35
2024/04/04 13:45:01;;;;;;;7.30;6.78;;;14.30;99.90;;;;;;12598318;28;20064;-36
2024/04/04 13:51:02;;;;;;;6.93;6.20;;;14.30;99.90;;;;;;12615451;28;20047;-36
2024/04/04 13:57:04;;;;;;;7.38;6.88;;;14.30;99.90;;;;;;12608633;28;20055;-36
2024/04/04 14:03:04;;;;;;;8.45;7.68;;;14.30;99.90;;;;;;12625702;28;20051;-36
2024/04/04 14:09:06;;;;;;;8.07;7.30;;;14.20;99.90;;;;;;12620895;28;20056;-36
2024/04/04 14:15:08;;;;;;;6.95;6.35;;;14.10;99.90;;;;;;12622588;28;20052;-36
2024/04/04 14:21:10;;;;;;;6.72;6.13;;;14.20;99.90;;;;;;12610461;28;20075;-36
2024/04/04 14:27:11;;;;;;;8.07;5.50;;;14.40;99.90;;;;;;12607889;28;20051;-36
2024/04/04 14:33:11;;;;;;;5.50;5.00;;;14.50;99.90;;;;;;12604248;28;20045;-36
2024/04/04 14:39:12;;;;;;;5.57;4.95;;;14.30;99.90;;;;;;12621901;28;20040;-36
2024/04/04 14:45:13;;;;;;;8.68;6.07;;;14.20;99.90;;;;;;12600018;28;20135;-36
2024/04/04 14:51:14;;;;;;;7.90;5.82;;;14.20;99.90;;;;;;12623779;28;20067;-36
2024/04/04 14:57:15;;;;;;;3.65;3.30;;;14.20;99.90;;;;;;12609624;28;20061;-36
2024/04/04 15:03:16;;;;;;;4.70;3.30;;;14.10;99.90;;;;;;12613781;28;20052;-36
2024/04/04 15:09:17;;;;;;;5.13;3.10;;;14.00;99.90;;;;;;12612708;28;20048;-36
2024/04/04 15:15:17;;;;;;;4.22;2.85;;;13.50;99.90;;;;;;12603001;28;20400;-36
2024/04/04 15:21:19;;;;;;;124.93;118.68;;;13.10;99.90;;;;;;12606052;28;20088;-35
2024/04/04 15:27:20;;;;;;;194.43;185.52;;;11.50;99.90;;;;;;12619238;28;20067;-35
2024/04/04 15:33:21;;;;;;;147.60;140.57;;;11.00;99.90;;;;;;12616984;28;20059;-36
2024/04/04 15:39:21;;;;;;;109.05;103.72;;;11.50;99.90;;;;;;12615843;28;20097;-35
2024/04/04 15:45:23;;;;;;;20.55;19.10;;;12.50;99.90;;;;;;12606979;28;20047;-35
2024/04/04 15:51:24;;;;;;;8.85;3.50;;;13.00;99.90;;;;;;12609849;28;20124;-35
2024/04/04 15:57:25;;;;;;;8.10;7.13;;;12.70;99.90;;;;;;12613102;28;20074;-36
2024/04/04 16:03:27;;;;;;;6.30;5.80;;;12.20;99.90;;;;;;12614489;28;20183;-35
2024/04/04 16:09:28;;;;;;;7.30;6.70;;;12.40;99.90;;;;;;12608695;28;20543;-36
2024/04/04 16:15:29;;;;;;;4.28;3.72;;;12.30;99.90;;;;;;12616829;28;20071;-35
2024/04/04 16:21:30;;;;;;;5.72;4.47;;;12.80;99.90;;;;;;12598324;28;20190;-36
2024/04/04 16:27:33;;;;;;;4.53;4.13;;;12.90;99.90;;;;;;12611081;28;20047;-35
2024/04/04 16:33:34;;;;;;;8.07;3.22;;;12.30;99.90;;;;;;12606220;28;20052;-35
2024/04/04 16:39:34;;;;;;;4.28;2.33;;;12.00;99.90;;;;;;12600785;28;20048;-36
2024/04/04 16:45:36;;;;;;;3.47;2.08;;;11.90;99.90;;;;;;12612532;28;20488;-35
2024/04/04 16:51:37;;;;;;;4.28;2.03;;;12.00;99.90;;;;;;12612519;28;20467;-36
2024/04/04 16:57:38;;;;;;;5.50;2.40;;;12.10;99.90;;;;;;12601615;28;20227;-36
2024/04/04 17:03:40;;;;;;;4.57;2.20;;;12.10;99.90;;;;;;12603879;28;20052;-36
2024/04/04 17:09:41;;;;;;;6.85;2.60;;;11.90;99.90;;;;;;12610539;28;20052;-36
2024/04/04 17:15:42;;;;;;;4.47;2.30;;;11.90;99.90;;;;;;12597575;28;20048;-36
2024/04/04 17:21:43;;;;;;;6.18;2.13;;;12.00;99.90;;;;;;12602483;28;20136;-35
2024/04/04 17:27:46;;;;;;;8.70;2.40;;;11.90;99.90;;;;;;12597187;28;20060;-36
2024/04/04 17:33:47;;;;;;;6.53;2.20;;;11.90;99.90;;;;;;12616727;28;20595;-36
2024/04/04 17:39:47;;;;;;;8.70;2.50;;;11.80;99.90;;;;;;12608974;28;20055;-34
2024/04/04 17:45:48;;;;;;;4.57;2.10;;;11.70;99.90;;;;;;12626734;28;20054;-35
2024/04/04 17:51:49;;;;;;;8.25;2.63;;;11.70;99.90;;;;;;12623762;28;20052;-35
2024/04/04 17:57:51;;;;;;;7.40;2.50;;;11.60;99.90;;;;;;12618015;28;20059;-35
2024/04/04 18:03:51;;;;;;;7.25;2.45;;;11.60;99.90;;;;;;12621256;28;20059;-36
2024/04/04 18:09:53;;;;;;;5.88;2.53;;;11.50;99.90;;;;;;12615170;28;20052;-35
2024/04/04 18:15:54;;;;;;;4.50;2.22;;;11.60;99.90;;;;;;12611225;28;20044;-35
2024/04/04 18:21:55;;;;;;;8.50;2.47;;;11.60;99.90;;;;;;12622678;28;20056;-35
2024/04/04 18:27:56;;;;;;;5.85;2.20;;;11.50;99.90;;;;;;12610743;28;20048;-36
2024/04/04 18:33:56;;;;;;;12.15;2.90;;;11.40;99.90;;;;;;12629056;28;20400;-36
2024/04/04 18:39:57;;;;;;;8.23;2.83;;;11.40;99.90;;;;;;12616100;28;20083;-37
2024/04/04 18:46:00;;;;;;;8.63;2.67;;;11.40;99.90;;;;;;12607345;28;20131;-35
2024/04/04 18:52:01;;;;;;;7.45;2.92;;;11.40;99.90;;;;;;12616920;28;20051;-35
2024/04/04 18:58:01;;;;;;;7.47;2.53;;;11.40;99.90;;;;;;12612887;28;20441;-35
2024/04/04 19:04:04;;;;;;;13.88;4.25;;;11.40;99.90;;;;;;12607704;28;20072;-36
2024/04/04 19:10:05;;;;;;;8.20;2.85;;;11.30;99.90;;;;;;12612627;28;20048;-35
2024/04/04 19:16:06;;;;;;;8.32;3.03;;;11.40;99.90;;;;;;12610861;28;20044;-36
2024/04/04 19:22:07;;;;;;;12.23;3.42;;;11.40;99.90;;;;;;12611357;28;20048;-36
2024/04/04 19:28:07;;;;;;;10.55;3.22;;;11.30;99.90;;;;;;12602017;28;20052;-36
2024/04/04 19:34:09;;;;;;;10.25;3.05;;;11.30;99.90;;;;;;12612463;28;20097;-35
2024/04/04 19:40:10;;;;;;;10.50;2.88;;;11.30;99.90;;;;;;12616242;28;20071;-36
2024/04/04 19:46:11;;;;;;;12.38;3.40;;;11.30;99.90;;;;;;12621993;28;20114;-35
2024/04/04 19:52:12;;;;;;;14.63;3.70;;;11.30;99.90;;;;;;12597354;28;20063;-36
2024/04/04 19:58:14;;;;;;;11.13;3.42;;;11.30;99.90;;;;;;12610729;28;20047;-38
2024/04/04 20:04:18;;;;;;;15.57;3.63;;;11.20;99.90;;;;;;12613657;28;20044;-36
2024/04/04 20:10:19;;;;;;;;;;;11.20;99.90;;;;;;12618838;28;20404;-35
2024/04/04 20:16:21;;;;;;;13.48;3.80;;;11.20;99.90;;;;;;12600100;28;19927;-35
2024/04/04 20:22:22;;;;;;;11.13;3.60;;;11.10;99.90;;;;;;12608012;28;20459;-35
2024/04/04 20:28:23;;;;;;;20.33;5.32;;;11.10;99.90;;;;;;12608654;28;20427;-35
2024/04/04 20:34:24;;;;;;;19.27;4.93;;;11.00;99.90;;;;;;12602776;28;20063;-36
2024/04/04 20:40:24;;;;;;;18.02;4.72;;;11.00;99.90;;;;;;12596511;28;20040;-35
2024/04/04 20:46:25;;;;;;;14.68;5.25;;;11.00;99.90;;;;;;12616912;28;20076;-36
2024/04/04 20:52:26;;;;;;;17.60;5.40;;;10.90;99.90;;;;;;12615773;28;20139;-36
2024/04/04 20:58:27;;;;;;;17.58;4.88;;;10.90;99.90;;;;;;12589403;28;20123;-35
2024/04/04 21:04:28;;;;;;;16.50;4.90;;;10.90;99.90;;;;;;12596063;28;20060;-36
2024/04/04 21:10:29;;;;;;;18.05;4.97;;;10.80;99.90;;;;;;12601345;28;20458;-35
2024/04/04 21:16:30;;;;;;;14.68;5.85;;;11.00;99.90;;;;;;12607566;28;20059;-36
2024/04/04 21:22:31;;;;;;;17.05;5.85;;;11.10;99.90;;;;;;12610480;28;20130;-36
2024/04/04 21:28:32;;;;;;;17.42;5.68;;;11.10;99.90;;;;;;12599945;28;20067;-35
2024/04/04 21:34:33;;;;;;;23.25;6.22;;;11.10;99.90;;;;;;12597637;28;20576;-36
2024/04/04 21:40:34;;;;;;;17.00;5.70;;;11.10;99.90;;;;;;12594675;28;20416;-36
2024/04/04 21:46:35;;;;;;;23.73;5.40;;;11.10;99.90;;;;;;12602216;28;20044;-35
2024/04/04 21:52:36;;;;;;;20.35;5.72;;;11.10;99.90;;;;;;12611041;28;20360;-36
2024/04/04 21:58:38;;;;;;;21.88;5.97;;;11.00;99.90;;;;;;12608060;28;20078;-35
2024/04/04 22:04:39;;;;;;;17.38;6.47;;;11.10;99.90;;;;;;12605539;28;21416;-36
2024/04/04 22:10:39;;;;;;;18.02;6.07;;;11.10;99.90;;;;;;12591430;28;20056;-35
2024/04/04 22:16:40;;;;;;;24.00;7.20;;;11.20;99.90;;;;;;12612586;28;20044;-35
2024/04/04 22:22:41;;;;;;;21.48;6.68;;;11.40;99.90;;;;;;12620518;28;20420;-35
2024/04/04 22:28:42;;;;;;;18.17;6.70;;;11.20;99.90;;;;;;12624606;28;20066;-35
2024/04/04 22:34:43;;;;;;;21.20;6.78;;;11.40;99.90;;;;;;12604547;28;20060;-35
2024/04/04 22:40:44;;;;;;;15.98;5.50;;;11.40;99.90;;;;;;12597111;28;20048;-35
2024/04/04 22:46:45;;;;;;;24.95;6.75;;;11.30;99.90;;;;;;12617581;28;20489;-35
2024/04/04 22:52:46;;;;;;;20.58;6.95;;;11.30;99.90;;;;;;12601551;28;20052;-36
2024/04/04 22:58:47;;;;;;;21.48;6.80;;;11.30;99.90;;;;;;12602479;28;20053;-35
2024/04/04 23:04:51;;;;;;;18.75;7.35;;;11.20;99.90;;;;;;12604893;28;20045;-36
2024/04/04 23:10:52;;;;;;;19.25;6.85;;;11.10;99.90;;;;;;12591989;28;20060;-36
2024/04/04 23:16:53;;;;;;;18.50;6.45;;;11.10;99.90;;;;;;12614673;28;20089;-35
2024/04/04 23:22:54;;;;;;;16.60;6.45;;;11.10;99.90;;;;;;12609180;28;20131;-35
2024/04/04 23:28:55;;;;;;;23.45;6.47;;;11.00;99.90;;;;;;12604134;28;20104;-35
2024/04/04 23:34:56;;;;;;;21.63;6.55;;;11.00;99.90;;;;;;12606543;28;20059;-35
2024/04/04 23:40:57;;;;;;;23.63;6.30;;;10.90;99.90;;;;;;12612174;28;20405;-35
2024/04/04 23:46:58;;;;;;;20.80;7.18;;;10.80;99.90;;;;;;12595990;28;20523;-35
2024/04/04 23:52:59;;;;;;;23.83;6.85;;;10.80;99.90;;;;;;12612860;28;20127;-35
2024/04/04 23:59:00;;;;;;;20.50;6.20;;;10.70;99.90;;;;;;12604832;28;20048;-36
